Time;durP1;ratioP1;P1;durP2;ratioP2;P2;SDS_P1;SDS_P2;PMS_P1;PMS_P2;Temp;Humidity;BMP_temperature;BMP_pressure;BME280_temperature;BME280_humidity;BME280_pressure;Samples;Min_cycle;Max_cycle;Signal;HPM_P1;HPM_P2
2023/08/02 00:00:35;;;;;;;15.82;9.15;;;14.90;99.90;;;;;;4979932;28;20053;-74
2023/08/02 00:03:01;;;;;;;13.63;8.88;;;14.90;99.90;;;;;;4981974;28;20097;-74
2023/08/02 00:05:26;;;;;;;14.98;8.60;;;14.80;99.90;;;;;;4992373;28;20042;-74
2023/08/02 00:07:52;;;;;;;14.43;9.05;;;14.90;99.90;;;;;;4993007;28;20038;-74
2023/08/02 00:10:18;;;;;;;14.40;9.20;;;14.90;99.90;;;;;;4975164;28;20499;-74
2023/08/02 00:12:43;;;;;;;14.57;8.50;;;14.90;99.90;;;;;;4982186;28;20496;-74
2023/08/02 00:15:09;;;;;;;16.02;7.28;;;14.90;99.90;;;;;;4990177;28;20084;-74
2023/08/02 00:17:35;;;;;;;18.48;9.88;;;14.90;99.90;;;;;;4992120;28;20046;-74
2023/08/02 00:20:00;;;;;;;13.77;8.52;;;14.90;99.90;;;;;;4978793;28;20109;-74
2023/08/02 00:22:26;;;;;;;16.00;9.70;;;14.90;99.90;;;;;;4982092;28;20088;-74
2023/08/02 00:24:51;;;;;;;12.95;7.35;;;14.90;99.90;;;;;;4987501;28;20042;-74
2023/08/02 00:27:17;;;;;;;10.90;8.57;;;14.90;99.90;;;;;;4991260;28;20049;-75
2023/08/02 00:29:43;;;;;;;11.52;7.25;;;14.90;99.90;;;;;;4959550;28;20121;-74
2023/08/02 00:32:08;;;;;;;14.73;8.18;;;14.90;99.90;;;;;;4980939;28;20049;-74
2023/08/02 00:34:34;;;;;;;12.57;8.50;;;14.90;99.90;;;;;;4985595;28;20511;-74
2023/08/02 00:37:01;;;;;;;14.13;8.52;;;14.90;99.90;;;;;;4993732;28;20034;-74
2023/08/02 00:39:27;;;;;;;13.77;8.65;;;15.00;99.90;;;;;;4974292;28;20046;-74
2023/08/02 00:41:52;;;;;;;13.88;7.78;;;15.00;99.90;;;;;;4977054;28;20038;-74
2023/08/02 00:44:18;;;;;;;20.92;8.32;;;14.90;99.90;;;;;;4982740;28;20042;-73
2023/08/02 00:46:43;;;;;;;16.20;9.23;;;14.90;99.90;;;;;;4977420;28;20042;-74
2023/08/02 00:49:10;;;;;;;13.20;7.53;;;14.90;99.90;;;;;;4983332;28;20038;-74
2023/08/02 00:51:36;;;;;;;14.25;7.25;;;14.90;99.90;;;;;;4983807;28;20038;-74
2023/08/02 00:54:02;;;;;;;13.77;8.20;;;14.90;99.90;;;;;;4983220;28;20076;-74
2023/08/02 00:56:31;;;;;;;20.60;8.13;;;14.90;99.90;;;;;;4986962;28;20038;-74
2023/08/02 00:58:57;;;;;;;15.00;8.13;;;15.00;99.90;;;;;;4976350;28;20034;-74
2023/08/02 01:01:24;;;;;;;18.30;8.55;;;15.00;99.90;;;;;;4975114;28;20044;-74
2023/08/02 01:03:50;;;;;;;17.67;7.70;;;15.00;99.90;;;;;;4987536;28;20081;-74
2023/08/02 01:06:37;;;;;;;19.10;8.48;;;15.00;99.90;;;;;;4988010;28;20052;-74
2023/08/02 01:09:28;;;;;;;19.50;9.00;;;15.00;99.90;;;;;;4987116;28;20045;-74
2023/08/02 01:12:09;;;;;;;21.17;9.18;;;15.00;99.90;;;;;;4982076;28;20041;-74
2023/08/02 01:14:39;;;;;;;19.13;8.82;;;15.00;99.90;;;;;;4988846;28;20037;-74
2023/08/02 01:17:05;;;;;;;22.10;9.98;;;15.00;99.90;;;;;;4997016;28;20041;-74
2023/08/02 01:19:33;;;;;;;26.73;10.30;;;15.00;99.90;;;;;;4999011;28;21409;-74
2023/08/02 01:21:58;;;;;;;20.45;9.50;;;15.00;99.90;;;;;;4982547;28;20030;-74
2023/08/02 01:24:33;;;;;;;21.80;9.02;;;15.00;99.90;;;;;;4988868;28;20092;-74
2023/08/02 01:27:06;;;;;;;24.27;10.73;;;15.00;99.90;;;;;;4987166;28;20045;-74
2023/08/02 01:29:33;;;;;;;23.02;9.77;;;15.00;99.90;;;;;;4982436;28;20133;-74
2023/08/02 01:32:02;;;;;;;25.80;10.70;;;15.00;99.90;;;;;;4982511;28;20045;-74
2023/08/02 01:34:28;;;;;;;23.25;9.98;;;15.00;99.90;;;;;;4988152;28;20038;-74
2023/08/02 01:36:54;;;;;;;18.45;9.63;;;15.00;99.90;;;;;;4992770;28;20038;-74
2023/08/02 01:39:19;;;;;;;21.70;10.48;;;15.00;99.90;;;;;;4974614;28;20041;-73
2023/08/02 01:41:45;;;;;;;18.92;10.05;;;15.00;99.90;;;;;;4987089;28;20575;-74
2023/08/02 01:44:11;;;;;;;22.23;9.85;;;14.90;99.90;;;;;;4988320;28;20037;-74
2023/08/02 01:46:36;;;;;;;31.38;11.73;;;15.00;99.90;;;;;;4992160;28;20042;-74
2023/08/02 01:49:02;;;;;;;20.88;10.18;;;14.90;99.90;;;;;;4967075;28;20038;-74
2023/08/02 01:51:27;;;;;;;22.50;11.10;;;14.90;99.90;;;;;;4967243;28;20417;-74
2023/08/02 01:53:53;;;;;;;22.95;10.85;;;14.90;99.90;;;;;;4983518;28;20042;-74
2023/08/02 01:56:18;;;;;;;22.33;10.13;;;14.90;99.90;;;;;;5008798;28;20034;-74
2023/08/02 01:58:44;;;;;;;19.17;9.75;;;14.90;99.90;;;;;;4968749;28;20034;-74
2023/08/02 02:01:10;;;;;;;21.17;10.85;;;14.90;99.90;;;;;;4983967;28;20484;-74
2023/08/02 02:03:35;;;;;;;22.85;11.13;;;14.80;99.90;;;;;;5000280;28;20401;-74
2023/08/02 02:06:01;;;;;;;21.27;10.82;;;14.80;99.90;;;;;;4988939;28;20033;-74
2023/08/02 02:08:26;;;;;;;23.10;11.48;;;14.80;99.90;;;;;;4983255;28;20085;-74
2023/08/02 02:10:53;;;;;;;22.42;11.73;;;14.80;99.90;;;;;;4973253;28;20110;-74
2023/08/02 02:13:20;;;;;;;23.73;10.80;;;14.80;99.90;;;;;;4985891;28;20048;-74
2023/08/02 02:15:46;;;;;;;21.60;10.43;;;14.80;99.90;;;;;;4987416;28;20085;-74
2023/08/02 02:18:11;;;;;;;23.60;11.57;;;14.70;99.90;;;;;;4972582;28;20038;-74
2023/08/02 02:20:37;;;;;;;31.17;11.93;;;14.80;99.90;;;;;;4982516;28;20039;-73
2023/08/02 02:23:03;;;;;;;21.45;9.45;;;14.70;99.90;;;;;;4998232;28;20069;-74
2023/08/02 02:25:28;;;;;;;19.05;10.38;;;14.70;99.90;;;;;;4985849;28;20484;-74
2023/08/02 02:27:54;;;;;;;22.10;10.40;;;14.70;99.90;;;;;;4972821;28;20042;-74
2023/08/02 02:30:19;;;;;;;24.73;11.50;;;14.70;99.90;;;;;;4980142;28;20064;-74
2023/08/02 02:32:45;;;;;;;22.70;10.05;;;14.70;99.90;;;;;;4979428;28;20100;-74
2023/08/02 02:35:15;;;;;;;22.15;10.38;;;14.70;99.90;;;;;;5001514;28;20050;-74
2023/08/02 02:37:41;;;;;;;17.20;10.20;;;14.70;99.90;;;;;;4968229;28;20053;-74
2023/08/02 02:40:08;;;;;;;24.33;11.35;;;14.60;99.90;;;;;;4982336;28;20045;-74
2023/08/02 02:42:35;;;;;;;20.80;11.48;;;14.60;99.90;;;;;;4978515;28;20523;-74
2023/08/02 02:45:01;;;;;;;17.75;9.60;;;14.60;99.90;;;;;;4985289;28;20046;-74
2023/08/02 02:47:26;;;;;;;18.05;10.38;;;14.60;99.90;;;;;;4975776;28;20041;-74
2023/08/02 02:49:52;;;;;;;17.48;10.48;;;14.50;99.90;;;;;;4986334;28;20044;-74
2023/08/02 02:52:17;;;;;;;22.35;11.57;;;14.50;99.90;;;;;;4962713;28;20118;-74
2023/08/02 02:54:43;;;;;;;21.17;11.23;;;14.50;99.90;;;;;;4986608;28;20023;-74
2023/08/02 02:57:09;;;;;;;21.92;10.85;;;14.50;99.90;;;;;;4972388;28;20135;-74
2023/08/02 02:59:35;;;;;;;17.17;10.60;;;14.50;99.90;;;;;;4961867;28;20100;-74
2023/08/02 03:02:01;;;;;;;20.33;11.90;;;14.40;99.90;;;;;;4980168;28;20034;-74
2023/08/02 03:04:27;;;;;;;17.65;12.07;;;14.40;99.90;;;;;;4987503;28;20466;-74
2023/08/02 03:06:53;;;;;;;17.95;11.00;;;14.30;99.90;;;;;;4975137;28;20048;-74
2023/08/02 03:09:19;;;;;;;23.85;13.38;;;14.30;99.90;;;;;;4975525;28;20046;-74
2023/08/02 03:11:45;;;;;;;17.02;10.82;;;14.20;99.90;;;;;;4974237;28;20046;-74
2023/08/02 03:14:12;;;;;;;22.02;13.00;;;14.20;99.90;;;;;;4982354;28;20069;-74
2023/08/02 03:16:38;;;;;;;20.85;12.75;;;14.20;99.90;;;;;;4970725;28;20088;-74
2023/08/02 03:19:04;;;;;;;22.17;14.20;;;14.10;99.90;;;;;;4959236;28;20497;-74
2023/08/02 03:21:30;;;;;;;19.75;13.82;;;14.10;99.90;;;;;;4974703;28;20049;-74
2023/08/02 03:23:55;;;;;;;24.65;15.68;;;14.10;99.90;;;;;;4981949;28;20038;-74
2023/08/02 03:26:21;;;;;;;19.15;13.75;;;14.00;99.90;;;;;;4985312;28;20045;-74
2023/08/02 03:28:47;;;;;;;23.45;14.45;;;14.00;99.90;;;;;;4975541;28;20500;-74
2023/08/02 03:31:12;;;;;;;22.73;15.07;;;14.00;99.90;;;;;;4981618;28;20492;-74
2023/08/02 03:33:38;;;;;;;23.13;16.85;;;14.00;99.90;;;;;;4972865;28;20086;-74
2023/08/02 03:36:04;;;;;;;19.58;16.70;;;14.10;99.90;;;;;;4989717;28;20049;-74
2023/08/02 03:38:29;;;;;;;20.55;14.35;;;14.00;99.90;;;;;;4991212;28;20049;-74
2023/08/02 03:40:55;;;;;;;20.88;14.75;;;14.00;99.90;;;;;;4975499;28;20460;-74
2023/08/02 03:43:21;;;;;;;23.05;15.38;;;13.90;99.90;;;;;;4980542;28;20052;-74
2023/08/02 03:45:48;;;;;;;25.40;16.77;;;13.90;99.90;;;;;;4987115;28;20061;-74
2023/08/02 03:48:14;;;;;;;24.70;16.88;;;13.90;99.90;;;;;;4994358;28;20496;-74
2023/08/02 03:50:40;;;;;;;25.58;17.77;;;13.90;99.90;;;;;;4959777;28;20118;-74
2023/08/02 03:53:06;;;;;;;21.63;16.13;;;13.80;99.90;;;;;;4975604;28;20049;-75
2023/08/02 03:55:31;;;;;;;26.73;18.08;;;13.80;99.90;;;;;;4986162;28;20072;-73
2023/08/02 03:57:57;;;;;;;26.02;16.50;;;13.80;99.90;;;;;;4994452;28;20037;-74
2023/08/02 04:00:23;;;;;;;25.63;17.75;;;13.80;99.90;;;;;;4983036;28;20044;-74
2023/08/02 04:02:48;;;;;;;20.55;16.45;;;13.80;99.90;;;;;;4971009;28;20424;-74
2023/08/02 04:05:14;;;;;;;27.45;17.05;;;13.80;99.90;;;;;;4976510;28;20039;-74
2023/08/02 04:07:39;;;;;;;26.33;18.67;;;13.80;99.90;;;;;;4971790;28;20037;-74
2023/08/02 04:10:06;;;;;;;24.60;16.50;;;13.70;99.90;;;;;;4979568;28;20093;-74
2023/08/02 04:12:31;;;;;;;25.17;18.45;;;13.70;99.90;;;;;;4973223;28;20045;-74
2023/08/02 04:14:57;;;;;;;24.42;17.90;;;13.70;99.90;;;;;;4980972;28;20579;-74
2023/08/02 04:17:25;;;;;;;22.25;17.55;;;13.70;99.90;;;;;;4985796;28;20033;-74
2023/08/02 04:19:51;;;;;;;27.95;18.70;;;13.70;99.90;;;;;;4992639;28;20488;-74
2023/08/02 04:22:16;;;;;;;23.92;18.63;;;13.70;99.90;;;;;;4967004;28;20037;-74
2023/08/02 04:24:42;;;;;;;25.83;18.98;;;13.70;99.90;;;;;;4978166;28;20030;-74
2023/08/02 04:27:08;;;;;;;25.70;18.60;;;13.70;99.90;;;;;;4993925;28;20141;-74
2023/08/02 04:29:33;;;;;;;28.10;18.90;;;13.70;99.90;;;;;;4994052;28;20052;-74
2023/08/02 04:31:59;;;;;;;22.70;15.88;;;13.70;99.90;;;;;;4976202;28;20038;-74
2023/08/02 04:34:24;;;;;;;24.05;17.58;;;13.70;99.90;;;;;;4984122;28;20080;-74
2023/08/02 04:36:51;;;;;;;22.92;17.77;;;13.70;99.90;;;;;;4978210;28;20125;-74
2023/08/02 04:39:17;;;;;;;26.77;17.40;;;13.70;99.90;;;;;;4978225;28;20046;-74
2023/08/02 04:41:42;;;;;;;30.95;21.42;;;13.70;99.90;;;;;;4976979;28;20406;-74
2023/08/02 04:44:08;;;;;;;24.15;17.55;;;13.70;99.90;;;;;;4977637;28;20485;-74
2023/08/02 04:46:33;;;;;;;29.65;19.25;;;13.80;99.90;;;;;;4972130;28;20540;-74
2023/08/02 04:48:59;;;;;;;22.40;17.80;;;13.70;99.90;;;;;;4998135;28;20041;-74
2023/08/02 04:51:25;;;;;;;33.60;20.88;;;13.80;99.90;;;;;;4985195;28;20038;-74
2023/08/02 04:53:50;;;;;;;29.45;20.10;;;13.80;99.90;;;;;;4975929;28;20041;-74
2023/08/02 04:56:17;;;;;;;23.73;17.38;;;13.80;99.90;;;;;;4973231;28;20113;-74
2023/08/02 04:58:43;;;;;;;23.15;16.35;;;13.90;99.90;;;;;;4970161;28;20424;-74
2023/08/02 05:01:08;;;;;;;21.88;16.27;;;13.90;99.90;;;;;;4968180;28;20034;-74
2023/08/02 05:03:35;;;;;;;20.48;15.70;;;13.90;99.90;;;;;;4977260;28;20038;-74
2023/08/02 05:06:02;;;;;;;23.58;18.00;;;13.90;99.90;;;;;;4978945;28;20576;-74
2023/08/02 05:08:30;;;;;;;25.20;18.00;;;13.90;99.90;;;;;;4977678;28;20550;-74
2023/08/02 05:10:56;;;;;;;24.08;17.70;;;14.00;99.90;;;;;;4948441;28;20064;-74
2023/08/02 05:13:23;;;;;;;22.88;16.73;;;14.00;99.90;;;;;;4976157;28;20493;-74
2023/08/02 05:15:49;;;;;;;19.70;15.82;;;14.00;99.90;;;;;;4976031;28;20050;-74
2023/08/02 05:18:15;;;;;;;18.67;15.88;;;14.00;99.90;;;;;;4978616;28;20037;-74
2023/08/02 05:20:41;;;;;;;21.30;16.75;;;14.10;99.90;;;;;;4977336;28;20038;-74
2023/08/02 05:23:06;;;;;;;22.70;16.30;;;14.10;99.90;;;;;;4980277;28;20073;-76
2023/08/02 05:25:34;;;;;;;18.35;15.48;;;14.10;99.90;;;;;;4980518;28;20048;-75
2023/08/02 05:28:00;;;;;;;21.73;15.77;;;14.30;99.90;;;;;;4982800;28;20519;-76
2023/08/02 05:30:30;;;;;;;19.67;14.18;;;14.30;99.90;;;;;;4983838;28;20508;-76
2023/08/02 05:32:56;;;;;;;22.98;14.20;;;14.40;99.90;;;;;;4984201;28;20046;-76
2023/08/02 05:48:31;;;;;;;16.42;10.30;;;15.10;99.90;;;;;;4824147;29;20174;-79
2023/08/02 05:52:24;;;;;;;14.38;10.93;;;15.00;99.90;;;;;;4909005;29;20036;-79
2023/08/02 05:59:43;;;;;;;;;;;;;;;;;;;;;
2023/08/02 06:02:53;;;;;;;14.00;9.05;;;15.30;99.90;;;;;;4933991;29;20050;-79
2023/08/02 06:05:31;;;;;;;13.27;9.48;;;15.30;99.90;;;;;;4945874;28;20046;-79
2023/08/02 06:08:34;;;;;;;14.13;10.02;;;15.40;99.90;;;;;;4976748;28;20046;-79
2023/08/02 06:11:46;;;;;;;11.80;9.20;;;15.40;99.90;;;;;;4968747;28;20054;-79
2023/08/02 06:14:48;;;;;;;14.45;9.30;;;15.50;99.90;;;;;;4945888;28;20473;-79
2023/08/02 06:21:34;;;;;;;15.13;9.10;;;15.60;99.90;;;;;;4877387;29;20041;-79
2023/08/02 06:25:29;;;;;;;14.18;7.90;;;15.50;99.90;;;;;;4836076;29;20054;-79
2023/08/02 06:28:25;;;;;;;9.70;8.23;;;15.50;99.90;;;;;;4875347;29;20426;-79
2023/08/02 06:31:52;;;;;;;12.82;8.32;;;15.40;99.90;;;;;;4926902;28;20062;-78
2023/08/02 06:34:34;;;;;;;12.35;8.00;;;15.40;99.90;;;;;;4994931;28;20116;-79
2023/08/02 06:37:10;;;;;;;10.93;7.85;;;15.40;99.90;;;;;;4969301;28;20479;-80
2023/08/02 06:40:08;;;;;;;10.77;7.45;;;15.40;99.90;;;;;;4995595;28;20132;-79
2023/08/02 06:43:06;;;;;;;9.07;7.35;;;15.40;99.90;;;;;;5011160;28;20050;-78
2023/08/02 06:45:58;;;;;;;11.55;7.53;;;15.40;99.90;;;;;;4995523;28;20038;-79
2023/08/02 06:48:56;;;;;;;10.30;7.20;;;15.40;99.90;;;;;;4990927;28;20045;-79
2023/08/02 06:51:48;;;;;;;10.35;7.75;;;15.40;99.90;;;;;;4998080;28;20084;-79
2023/08/02 06:55:49;;;;;;;;;;;;;;;;;;;;;
2023/08/02 06:59:36;;;;;;;10.63;7.63;;;15.30;99.90;;;;;;4975382;28;20060;-81
2023/08/02 07:13:44;;;;;;;16.70;10.60;;;15.20;99.90;;;;;;4843120;29;20160;-79
2023/08/02 07:17:21;;;;;;;;;;;;;;;;;;;;;
2023/08/02 08:03:53;;;;;;;27.67;14.77;;;14.90;99.90;;;;;;5937633;22;20042;-89
2023/08/02 08:06:23;;;;;;;20.52;13.65;;;15.00;99.90;;;;;;4974843;28;20036;-89
2023/08/02 08:08:49;;;;;;;25.23;14.35;;;15.00;99.90;;;;;;4961452;28;20042;-89
2023/08/02 08:11:15;;;;;;;32.55;15.35;;;15.10;99.90;;;;;;4962861;28;20387;-89
2023/08/02 08:13:41;;;;;;;20.65;12.60;;;15.10;99.90;;;;;;4979014;28;20046;-89
2023/08/02 08:16:07;;;;;;;20.83;13.32;;;15.10;99.90;;;;;;4962867;28;20034;-89
2023/08/02 08:18:33;;;;;;;19.52;12.68;;;15.20;99.90;;;;;;4975409;23;20038;-74
2023/08/02 08:21:01;;;;;;;22.05;13.30;;;15.20;99.90;;;;;;4943200;28;20066;-75
2023/08/02 08:23:27;;;;;;;23.38;12.90;;;15.30;99.90;;;;;;4959173;28;20047;-75
2023/08/02 08:25:53;;;;;;;20.67;13.77;;;15.40;99.90;;;;;;4958991;28;20050;-75
2023/08/02 08:28:19;;;;;;;24.23;15.85;;;15.50;99.90;;;;;;4967152;28;20717;-75
2023/08/02 08:30:45;;;;;;;41.30;20.42;;;15.60;99.90;;;;;;4962465;28;20071;-75
2023/08/02 08:33:11;;;;;;;25.67;15.13;;;15.70;99.90;;;;;;4980623;28;20039;-75
2023/08/02 08:35:36;;;;;;;24.27;15.82;;;15.80;99.90;;;;;;4941416;29;20039;-76
2023/08/02 08:38:03;;;;;;;23.83;16.77;;;15.70;99.90;;;;;;4935399;28;20484;-76
2023/08/02 08:40:29;;;;;;;28.70;17.75;;;15.70;99.90;;;;;;4946813;28;20039;-75
2023/08/02 08:42:56;;;;;;;21.70;15.25;;;15.70;99.90;;;;;;4971365;28;20125;-75
2023/08/02 08:45:26;;;;;;;28.35;17.45;;;15.70;99.90;;;;;;4938625;29;20035;-76
2023/08/02 08:47:53;;;;;;;29.58;17.38;;;15.70;99.90;;;;;;4955346;28;20035;-75
2023/08/02 08:50:21;;;;;;;19.80;15.15;;;15.70;99.90;;;;;;4954156;28;20114;-75
2023/08/02 08:52:50;;;;;;;43.60;22.77;;;15.60;99.90;;;;;;4979043;28;20043;-75
2023/08/02 08:55:17;;;;;;;19.33;15.95;;;15.50;99.90;;;;;;4941903;28;20417;-75
2023/08/02 08:57:45;;;;;;;35.75;19.63;;;15.50;99.90;;;;;;4938732;28;20041;-75
2023/08/02 09:00:13;;;;;;;42.65;23.25;;;15.40;99.90;;;;;;4981006;28;20050;-75
2023/08/02 09:02:39;;;;;;;29.35;22.15;;;15.40;99.90;;;;;;4952921;28;20042;-75
2023/08/02 09:05:06;;;;;;;40.78;26.25;;;15.40;99.90;;;;;;4932614;29;20105;-75
2023/08/02 09:07:32;;;;;;;43.10;28.23;;;15.50;99.90;;;;;;4969938;28;20062;-74
2023/08/02 09:09:57;;;;;;;26.02;21.92;;;15.50;99.90;;;;;;4972763;28;20489;-75
2023/08/02 09:12:24;;;;;;;26.48;21.63;;;15.70;99.90;;;;;;4938588;28;20042;-75
2023/08/02 09:15:00;;;;;;;23.70;19.50;;;15.70;99.90;;;;;;4941298;28;20058;-75
2023/08/02 09:17:26;;;;;;;38.65;26.02;;;15.80;99.90;;;;;;4939873;28;20118;-75
2023/08/02 09:20:07;;;;;;;29.70;22.27;;;15.90;99.90;;;;;;4944984;28;20514;-75
2023/08/02 09:22:33;;;;;;;34.50;25.95;;;15.90;99.90;;;;;;4955152;29;20047;-77
2023/08/02 09:24:58;;;;;;;23.33;18.95;;;15.90;99.90;;;;;;4939210;29;20043;-77
2023/08/02 09:27:30;;;;;;;25.70;21.77;;;15.90;99.90;;;;;;4937959;29;20454;-77
2023/08/02 09:29:55;;;;;;;21.58;17.90;;;16.00;99.90;;;;;;4950848;28;20070;-75
2023/08/02 09:32:23;;;;;;;28.02;22.90;;;15.90;99.90;;;;;;4947390;28;20035;-76
2023/08/02 09:34:56;;;;;;;42.78;25.88;;;15.90;99.90;;;;;;4961981;28;20054;-76
2023/08/02 09:37:29;;;;;;;27.77;22.10;;;16.00;99.90;;;;;;4932096;29;20031;-75
2023/08/02 09:39:55;;;;;;;20.95;18.67;;;16.00;99.90;;;;;;4969103;28;20106;-76
2023/08/02 09:42:24;;;;;;;20.65;18.42;;;16.00;99.90;;;;;;4937375;28;20043;-75
2023/08/02 09:45:01;;;;;;;16.52;14.82;;;16.00;99.90;;;;;;4970844;28;20518;-78
2023/08/02 09:47:27;;;;;;;20.50;18.27;;;16.10;99.90;;;;;;4952881;28;20363;-76
2023/08/02 09:50:16;;;;;;;32.03;23.33;;;16.10;99.90;;;;;;4969335;28;20047;-76
2023/08/02 09:52:41;;;;;;;23.55;17.67;;;16.20;99.90;;;;;;4938276;29;20055;-76
2023/08/02 09:55:09;;;;;;;20.20;16.23;;;16.20;99.90;;;;;;4939963;29;20050;-76
2023/08/02 09:57:35;;;;;;;15.57;13.93;;;16.20;99.90;;;;;;4954377;29;20152;-76
2023/08/02 10:00:04;;;;;;;13.10;11.75;;;16.30;99.90;;;;;;4954342;28;20130;-76
2023/08/02 10:02:31;;;;;;;21.38;14.27;;;16.30;99.90;;;;;;4969057;28;20050;-76
2023/08/02 10:04:58;;;;;;;16.38;14.18;;;16.20;99.90;;;;;;4970177;28;20512;-76
2023/08/02 10:07:47;;;;;;;20.02;15.90;;;16.20;99.90;;;;;;4953141;29;20118;-76
2023/08/02 10:10:18;;;;;;;13.32;11.35;;;16.20;99.90;;;;;;4953745;29;20063;-76
2023/08/02 10:12:51;;;;;;;10.48;9.43;;;16.40;99.90;;;;;;4953401;29;20433;-76
2023/08/02 10:15:17;;;;;;;12.37;11.27;;;16.50;99.90;;;;;;4938221;29;20035;-76
2023/08/02 10:17:44;;;;;;;9.02;8.18;;;16.70;99.90;;;;;;4969942;28;20694;-76
2023/08/02 10:20:12;;;;;;;8.73;7.85;;;16.90;99.90;;;;;;4970076;28;20043;-76
2023/08/02 10:22:40;;;;;;;9.15;8.35;;;17.00;99.90;;;;;;4967919;28;20047;-76
2023/08/02 10:25:06;;;;;;;8.63;7.70;;;17.00;99.90;;;;;;4935360;29;20039;-76
2023/08/02 10:27:33;;;;;;;7.43;6.70;;;17.00;99.90;;;;;;4940624;28;20036;-76
2023/08/02 10:29:59;;;;;;;9.25;7.88;;;17.00;99.90;;;;;;4971487;28;20402;-75
2023/08/02 10:32:25;;;;;;;6.45;5.32;;;16.90;99.90;;;;;;4934188;29;20057;-76
2023/08/02 10:34:52;;;;;;;8.10;7.13;;;16.90;99.90;;;;;;4961510;28;20039;-76
2023/08/02 10:37:19;;;;;;;10.77;9.07;;;16.90;99.90;;;;;;4953899;28;20082;-76
2023/08/02 10:39:45;;;;;;;13.68;9.88;;;16.90;99.90;;;;;;4952505;28;20049;-75
2023/08/02 10:42:22;;;;;;;9.43;7.38;;;17.00;99.90;;;;;;4950291;29;20035;-76
2023/08/02 10:44:57;;;;;;;9.98;8.27;;;17.10;99.90;;;;;;4943203;29;20035;-76
2023/08/02 10:47:33;;;;;;;10.40;8.95;;;17.00;99.90;;;;;;4935025;28;20045;-75
2023/08/02 10:50:01;;;;;;;8.70;7.85;;;17.00;99.90;;;;;;4969769;28;20563;-75
2023/08/02 10:52:36;;;;;;;11.57;9.40;;;17.00;99.90;;;;;;4939084;29;20035;-76
2023/08/02 10:55:06;;;;;;;7.22;6.60;;;17.00;99.90;;;;;;4953815;28;20032;-76
2023/08/02 10:57:31;;;;;;;6.63;5.97;;;17.00;99.90;;;;;;4937151;29;20043;-76
2023/08/02 10:59:57;;;;;;;7.88;7.15;;;17.00;99.90;;;;;;4937230;29;20533;-75
2023/08/02 11:02:25;;;;;;;7.45;6.75;;;17.00;99.90;;;;;;4937197;29;20031;-76
2023/08/02 11:04:52;;;;;;;8.18;7.53;;;17.10;99.90;;;;;;4936525;29;20498;-76
2023/08/02 11:07:21;;;;;;;11.75;10.57;;;17.10;99.90;;;;;;4969208;28;20054;-76
2023/08/02 11:09:54;;;;;;;9.00;8.30;;;17.20;99.90;;;;;;4936942;29;20121;-76
2023/08/02 11:12:20;;;;;;;;;;;17.20;99.90;;;;;;4969688;28;20149;-75
2023/08/02 11:14:49;;;;;;;14.60;13.30;;;17.40;99.90;;;;;;4936850;29;19930;-76
2023/08/02 11:17:23;;;;;;;8.00;7.43;;;17.70;99.90;;;;;;4920884;29;20054;-76
2023/08/02 11:19:51;;;;;;;10.10;9.30;;;18.00;99.90;;;;;;4934072;29;20553;-76
2023/08/02 11:22:17;;;;;;;9.95;9.25;;;18.30;99.90;;;;;;4966161;28;20397;-76
2023/08/02 11:24:53;;;;;;;11.57;10.75;;;18.60;99.90;;;;;;4964322;28;20126;-76
2023/08/02 11:27:24;;;;;;;11.27;10.48;;;18.90;99.90;;;;;;4960573;28;20498;-76
2023/08/02 11:30:20;;;;;;;10.82;10.13;;;19.00;99.90;;;;;;4961880;28;20083;-77
2023/08/02 11:32:46;;;;;;;8.05;7.55;;;19.30;99.90;;;;;;4952557;28;20055;-76
2023/08/02 11:35:19;;;;;;;7.13;6.63;;;19.70;99.90;;;;;;4936065;29;20032;-77
2023/08/02 11:37:46;;;;;;;8.95;8.30;;;20.00;99.90;;;;;;4950056;28;20093;-76
2023/08/02 11:40:13;;;;;;;9.52;8.73;;;20.30;99.90;;;;;;4966148;28;20035;-77
2023/08/02 11:42:54;;;;;;;7.95;7.15;;;20.70;99.90;;;;;;4934325;28;20039;-77
2023/08/02 11:45:31;;;;;;;5.05;4.65;;;21.10;99.90;;;;;;4932853;29;20462;-76
2023/08/02 11:47:57;;;;;;;6.90;6.22;;;21.50;99.90;;;;;;4962383;28;20067;-76
2023/08/02 11:50:28;;;;;;;4.93;4.53;;;21.80;99.90;;;;;;4964785;28;20063;-77
2023/08/02 11:53:06;;;;;;;4.78;4.38;;;21.90;99.90;;;;;;4966317;28;20051;-77
2023/08/02 11:55:35;;;;;;;4.50;4.10;;;21.80;99.90;;;;;;4969345;28;20047;-76
2023/08/02 11:58:05;;;;;;;4.10;3.80;;;22.00;99.90;;;;;;4935118;28;20386;-76
2023/08/02 12:00:33;;;;;;;4.75;4.35;;;21.90;99.90;;;;;;4966094;28;20039;-78
2023/08/02 12:03:13;;;;;;;4.32;3.92;;;21.90;99.90;;;;;;4930617;29;20032;-76
2023/08/02 12:05:39;;;;;;;3.47;3.10;;;22.10;99.90;;;;;;4963351;28;20166;-76
2023/08/02 12:08:17;;;;;;;4.03;3.72;;;22.30;99.90;;;;;;4963733;28;20449;-76
2023/08/02 12:10:43;;;;;;;3.90;3.60;;;22.60;99.90;;;;;;4964241;28;20058;-76
2023/08/02 12:13:12;;;;;;;4.13;3.80;;;22.60;99.90;;;;;;4931936;29;20039;-76
2023/08/02 12:15:38;;;;;;;3.75;3.45;;;22.60;99.90;;;;;;4968766;28;20057;-76
2023/08/02 12:18:05;;;;;;;3.78;3.45;;;22.50;99.90;;;;;;4954194;28;20383;-76
2023/08/02 12:20:32;;;;;;;3.72;3.42;;;22.50;99.90;;;;;;4967675;28;20048;-77
2023/08/02 12:22:59;;;;;;;3.10;2.90;;;22.60;99.90;;;;;;4962167;28;20115;-76
2023/08/02 12:25:24;;;;;;;3.30;2.97;;;22.80;99.90;;;;;;4940083;28;20118;-77
2023/08/02 12:28:07;;;;;;;3.85;3.55;;;23.10;99.90;;;;;;4975185;28;20126;-77
2023/08/02 12:30:32;;;;;;;3.60;3.03;;;23.10;99.90;;;;;;4968334;28;20054;-76
2023/08/02 12:32:58;;;;;;;3.30;3.00;;;22.90;99.90;;;;;;4938397;29;20039;-76
2023/08/02 12:35:24;;;;;;;3.45;2.60;;;22.80;99.90;;;;;;4943929;29;20079;-76
2023/08/02 12:37:51;;;;;;;2.60;2.40;;;22.70;99.90;;;;;;4934756;28;20043;-76
2023/08/02 12:40:17;;;;;;;2.83;2.50;;;22.60;99.90;;;;;;4964307;28;20043;-76
2023/08/02 12:42:43;;;;;;;2.50;2.22;;;22.50;99.90;;;;;;4949695;28;20047;-76
2023/08/02 12:45:08;;;;;;;2.63;2.17;;;22.30;99.90;;;;;;4942199;28;20081;-76
2023/08/02 12:47:34;;;;;;;2.45;2.15;;;22.20;99.90;;;;;;4956030;28;20065;-76
2023/08/02 12:50:00;;;;;;;2.83;2.40;;;22.10;99.90;;;;;;4943540;29;20157;-76
2023/08/02 12:52:26;;;;;;;4.82;2.60;;;21.90;99.90;;;;;;4985721;28;20038;-76
2023/08/02 12:54:51;;;;;;;4.68;2.67;;;21.70;99.90;;;;;;4988466;28;20567;-76
2023/08/02 12:57:17;;;;;;;3.17;2.67;;;21.80;99.90;;;;;;4982491;28;20425;-76
2023/08/02 12:59:42;;;;;;;3.28;2.38;;;22.20;99.90;;;;;;4971664;28;20043;-76
2023/08/02 13:02:08;;;;;;;4.93;2.53;;;22.50;99.90;;;;;;4968497;28;20035;-76
2023/08/02 13:04:34;;;;;;;2.97;2.30;;;23.20;99.90;;;;;;4936027;29;20039;-75
2023/08/02 13:07:00;;;;;;;3.75;2.40;;;23.70;99.90;;;;;;4966919;28;20442;-75
2023/08/02 13:09:25;;;;;;;2.30;2.00;;;23.80;99.90;;;;;;4933523;28;20110;-76
2023/08/02 13:11:52;;;;;;;3.15;1.98;;;23.70;99.90;;;;;;4935693;29;20035;-75
2023/08/02 13:14:18;;;;;;;3.05;1.67;;;23.80;99.90;;;;;;4971211;28;20047;-75
2023/08/02 13:16:43;;;;;;;4.20;2.00;;;23.90;99.90;;;;;;4935328;29;20043;-76
2023/08/02 13:19:09;;;;;;;4.95;2.20;;;23.80;99.90;;;;;;4934696;28;20039;-75
2023/08/02 13:21:35;;;;;;;3.85;2.30;;;23.60;99.90;;;;;;4935190;28;20059;-75
2023/08/02 13:24:00;;;;;;;4.15;2.30;;;23.20;99.90;;;;;;4965456;28;20039;-77
2023/08/02 13:26:26;;;;;;;5.05;2.28;;;23.00;99.90;;;;;;4968647;28;20035;-75
2023/08/02 13:28:52;;;;;;;4.40;2.30;;;23.10;99.90;;;;;;4968752;28;20122;-75
2023/08/02 13:31:17;;;;;;;5.32;2.03;;;23.50;99.90;;;;;;4937746;29;20035;-76
2023/08/02 13:33:44;;;;;;;6.78;1.88;;;23.90;99.90;;;;;;4970205;28;20047;-76
2023/08/02 13:36:10;;;;;;;5.95;2.03;;;24.30;99.90;;;;;;4971494;28;20039;-76
2023/08/02 13:38:36;;;;;;;4.82;1.88;;;24.90;99.90;;;;;;4936876;29;20039;-76
2023/08/02 13:41:02;;;;;;;4.40;1.70;;;24.90;99.90;;;;;;4968883;28;20073;-76
2023/08/02 13:43:28;;;;;;;4.80;1.60;;;24.50;99.90;;;;;;4939017;29;20039;-76
2023/08/02 13:45:53;;;;;;;5.28;1.50;;;24.10;99.90;;;;;;4938645;29;20094;-76
2023/08/02 13:48:19;;;;;;;5.88;1.55;;;23.50;99.90;;;;;;4939808;29;20089;-76
2023/08/02 13:50:45;;;;;;;5.13;1.70;;;23.30;99.90;;;;;;4954893;28;20078;-76
2023/08/02 13:53:11;;;;;;;5.65;1.58;;;23.00;99.90;;;;;;4969789;28;20043;-76
2023/08/02 13:55:36;;;;;;;3.65;0.90;;;22.70;99.90;;;;;;4938548;29;20456;-76
2023/08/02 13:58:03;;;;;;;4.63;1.00;;;22.60;99.90;;;;;;4968871;28;20031;-76
2023/08/02 14:00:29;;;;;;;3.88;1.00;;;22.50;99.90;;;;;;4968557;28;20039;-76
2023/08/02 14:02:55;;;;;;;3.47;1.00;;;22.60;99.90;;;;;;4945688;29;20097;-76
2023/08/02 14:05:21;;;;;;;4.28;0.95;;;23.00;99.90;;;;;;4938148;28;20031;-76
2023/08/02 14:07:46;;;;;;;4.45;1.02;;;23.20;99.90;;;;;;4934958;28;20114;-76
2023/08/02 14:10:12;;;;;;;6.97;1.02;;;23.00;99.90;;;;;;4969401;28;20058;-76